Broad Blunsdon, United Kingdom
Current Conditions -  °F | °C
As of 8:58 AM on Friday 28 Nov 2014 (Local Time) from EGVA Reporting Station
Overcast Overcast  
Wind Chill: 45°   Ceiling: 1600
Heat Index: 49°   Visibility: 6mi
Dew Point: 47°   Wind: 9mph
Humidity: 93%   Direction: 80°E
Pressure: 29.57"   Gusts: NA
Location:  51.61°N, 1.78°W
Report Text: EGVA 280858Z AUTO 08008KT 9999 OVC016 10/09 A2957 RMK AO2 SLP018 T00960085 51007 $
Loading
Personal Weather Stations






























Interactive Weather Map New forecast layout! Learn more

10-Day Weather Forecast

Advertisements
Track Severe Weather on mobile